createdAt,value
2023-04-21T00:01:28.795Z,91464.34
2023-04-21T00:04:14.737Z,91465.09
2023-04-21T00:07:01.008Z,91464.66
2023-04-21T00:09:46.967Z,91470.72
2023-04-21T00:12:32.757Z,91461.91
2023-04-21T00:15:18.668Z,91460.63
2023-04-21T00:18:04.593Z,91457.63
2023-04-21T00:20:50.512Z,91460.66
2023-04-21T00:23:36.349Z,91450.31
2023-04-21T00:26:22.218Z,91456.34
2023-04-21T00:29:08.120Z,91455.09
2023-04-21T00:31:54.174Z,91453.81
2023-04-21T00:34:40.060Z,91452.41
2023-04-21T00:37:27.900Z,91446.78
2023-04-21T00:40:13.746Z,91455.00
2023-04-21T00:42:59.563Z,91451.72
2023-04-21T00:45:45.426Z,91443.75
2023-04-21T00:48:31.336Z,91445.06
2023-04-21T00:51:17.118Z,91441.44
2023-04-21T00:54:03.047Z,91446.22
2023-04-21T00:56:49.012Z,91450.34
2023-04-21T00:59:34.770Z,91443.56
2023-04-21T01:02:20.667Z,91444.00
2023-04-21T01:05:06.908Z,91441.41
2023-04-21T01:07:52.756Z,91435.09
2023-04-21T01:10:38.582Z,91431.31
2023-04-21T01:13:24.289Z,91433.88
2023-04-21T01:16:10.304Z,91441.13
2023-04-21T01:18:56.290Z,91438.31
2023-04-21T01:21:41.994Z,91438.63
2023-04-21T01:24:27.890Z,91436.28
2023-04-21T01:27:13.620Z,91437.59
2023-04-21T01:29:59.558Z,91434.00
2023-04-21T01:32:45.504Z,91434.50
2023-04-21T01:35:31.340Z,91427.16
2023-04-21T01:38:19.326Z,91429.94
2023-04-21T01:41:05.841Z,91424.38
2023-04-21T01:43:51.545Z,91431.09
2023-04-21T01:46:37.473Z,91431.72
2023-04-21T01:49:23.335Z,91431.66
2023-04-21T01:52:09.182Z,91426.34
2023-04-21T01:54:55.163Z,91435.47
2023-04-21T01:57:40.955Z,91435.91
2023-04-21T02:00:26.882Z,91443.66
2023-04-21T02:03:12.843Z,91441.38
2023-04-21T02:05:59.211Z,91440.13
2023-04-21T02:08:45.116Z,91432.31
2023-04-21T02:11:31.052Z,91424.59
2023-04-21T02:14:16.936Z,91420.22
2023-04-21T02:17:03.012Z,91425.94
2023-04-21T02:19:48.718Z,91413.59
2023-04-21T02:22:34.566Z,91416.44
2023-04-21T02:25:20.542Z,91417.44
2023-04-21T02:28:06.384Z,91410.63
2023-04-21T02:30:52.261Z,91425.44
2023-04-21T02:33:38.001Z,91417.34
2023-04-21T02:36:23.906Z,91412.50
2023-04-21T02:39:09.832Z,91416.53
2023-04-21T02:41:55.679Z,91419.63
2023-04-21T02:44:41.674Z,91416.16
2023-04-21T02:47:27.627Z,91418.88
2023-04-21T02:50:13.385Z,91415.66
2023-04-21T02:52:59.394Z,91420.22
2023-04-21T02:55:47.232Z,91417.69
2023-04-21T02:58:33.050Z,91426.03
2023-04-21T03:01:18.955Z,91425.50
2023-04-21T03:04:04.801Z,91422.50
2023-04-21T03:06:50.909Z,91427.34
2023-04-21T03:09:36.806Z,91430.31
2023-04-21T03:12:22.628Z,91437.94
2023-04-21T03:15:08.585Z,91430.78
2023-04-21T03:17:54.425Z,91438.03
2023-04-21T03:20:40.221Z,91428.63
2023-04-21T03:23:26.270Z,91433.03
2023-04-21T03:26:12.137Z,91434.19
2023-04-21T03:28:58.057Z,91432.13
2023-04-21T03:31:43.964Z,91432.41
2023-04-21T03:34:29.678Z,91432.22
2023-04-21T03:37:15.517Z,91439.53
2023-04-21T03:40:01.334Z,91438.88
2023-04-21T03:42:47.175Z,91449.56
2023-04-21T03:45:33.074Z,91458.38
2023-04-21T03:48:18.882Z,91460.81
2023-04-21T03:51:04.674Z,91451.66
2023-04-21T03:53:50.525Z,91443.16
2023-04-21T03:56:36.462Z,91432.28
2023-04-21T03:59:22.361Z,91424.47
2023-04-21T04:02:08.194Z,91436.31
2023-04-21T04:04:54.466Z,91446.78
2023-04-21T04:07:40.389Z,91449.16
2023-04-21T04:10:26.396Z,91447.16
2023-04-21T04:13:12.288Z,91437.94
2023-04-21T04:15:58.095Z,91428.69
2023-04-21T04:18:44.035Z,91435.66
2023-04-21T04:21:29.881Z,91428.53
2023-04-21T04:24:15.743Z,91439.19
2023-04-21T04:27:01.615Z,91441.16
2023-04-21T04:29:47.454Z,91445.06
2023-04-21T04:32:33.222Z,91447.63
2023-04-21T04:35:19.179Z,91459.09
2023-04-21T04:38:04.953Z,91460.94
2023-04-21T04:40:50.985Z,91471.56
2023-04-21T04:43:36.993Z,91464.81
2023-04-21T04:46:22.777Z,91467.81
2023-04-21T04:49:10.497Z,91459.56
2023-04-21T04:51:56.382Z,91451.31
2023-04-21T04:54:42.275Z,91457.78
2023-04-21T04:57:28.160Z,91467.84
2023-04-21T05:00:14.426Z,91467.03
2023-04-21T05:03:00.448Z,91472.44
2023-04-21T05:05:46.924Z,91469.75
2023-04-21T05:08:32.874Z,91465.94
2023-04-21T05:11:18.680Z,91459.44
2023-04-21T05:14:04.639Z,91467.97
2023-04-21T05:16:50.553Z,91459.84
2023-04-21T05:19:36.459Z,91462.13
2023-04-21T05:22:22.295Z,91461.94
2023-04-21T05:25:08.165Z,91463.22
2023-04-21T05:27:54.162Z,91461.47
2023-04-21T05:30:40.102Z,91466.69
2023-04-21T05:33:26.000Z,91465.13
2023-04-21T05:36:11.981Z,91460.34
2023-04-21T05:38:57.895Z,91467.72
2023-04-21T05:41:43.750Z,91469.97
2023-04-21T05:44:29.453Z,91456.81
2023-04-21T05:47:15.484Z,91462.06
2023-04-21T05:50:01.314Z,91446.16
2023-04-21T05:52:47.091Z,91451.97
2023-04-21T05:55:32.934Z,91449.53
2023-04-21T05:58:18.829Z,91447.50
2023-04-21T06:01:04.661Z,91447.41
2023-04-21T06:03:50.888Z,91453.41
2023-04-21T06:06:37.157Z,91458.72
2023-04-21T06:09:23.132Z,91464.09
2023-04-21T06:12:11.109Z,91467.81
2023-04-21T06:14:57.016Z,91460.88
2023-04-21T06:17:43.052Z,91471.06
2023-04-21T06:20:29.017Z,91464.25
2023-04-21T06:23:14.840Z,91456.09
2023-04-21T06:26:00.696Z,91446.50
2023-04-21T06:28:46.575Z,91454.41
2023-04-21T06:31:32.260Z,91477.03
2023-04-21T06:34:18.362Z,91479.88
2023-04-21T06:37:04.385Z,91478.28
2023-04-21T06:39:50.322Z,91464.97
2023-04-21T06:42:36.318Z,91461.66
2023-04-21T06:45:22.166Z,91466.31
2023-04-21T06:48:08.138Z,91470.22
2023-04-21T06:50:54.014Z,91460.03
2023-04-21T06:53:39.895Z,91447.00
2023-04-21T06:56:25.885Z,91435.25
2023-04-21T06:59:11.727Z,91427.66
2023-04-21T07:05:26.357Z,91414.69
2023-04-21T07:08:12.066Z,91414.09
2023-04-21T07:10:57.909Z,91409.03
2023-04-21T07:13:43.699Z,91410.50
2023-04-21T07:16:29.673Z,91419.06
2023-04-21T07:19:15.438Z,91440.22
2023-04-21T07:22:01.321Z,91460.16
2023-04-21T07:24:49.089Z,91443.84
2023-04-21T07:27:35.252Z,91425.22
2023-04-21T07:30:21.375Z,91438.19
2023-04-21T07:33:07.457Z,91430.84
2023-04-21T07:35:53.500Z,91436.13
2023-04-21T07:38:39.275Z,91448.50
2023-04-21T07:41:25.159Z,91444.41
2023-04-21T07:44:11.034Z,91442.34
2023-04-21T07:46:56.961Z,91429.91
2023-04-21T07:49:42.875Z,91432.06
2023-04-21T07:52:28.893Z,91421.16
2023-04-21T07:55:14.911Z,91419.34
2023-04-21T07:58:00.710Z,91424.25
2023-04-21T08:00:46.610Z,91424.81
2023-04-21T08:03:32.621Z,91424.91
2023-04-21T08:06:19.059Z,91440.31
2023-04-21T08:09:05.153Z,91432.19
2023-04-21T08:11:51.049Z,91429.81
2023-04-21T08:14:37.132Z,91431.13
2023-04-21T08:17:23.149Z,91435.09
2023-04-21T08:20:09.001Z,91438.59
2023-04-21T08:22:54.983Z,91435.25
2023-04-21T08:25:41.066Z,91431.78
2023-04-21T08:28:27.106Z,91422.84
2023-04-21T08:31:13.389Z,91433.75
2023-04-21T08:34:02.280Z,91417.28
2023-04-21T08:36:48.453Z,91416.16
2023-04-21T08:39:34.595Z,91422.22
2023-04-21T08:42:20.741Z,91424.47
2023-04-21T08:45:06.647Z,91425.56
2023-04-21T08:47:52.619Z,91426.88
2023-04-21T08:50:38.504Z,91430.22
2023-04-21T08:53:24.255Z,91431.44
2023-04-21T08:56:11.638Z,91445.72
2023-04-21T08:58:58.050Z,91439.75
2023-04-21T09:01:44.057Z,91442.81
2023-04-21T09:04:32.427Z,91450.41
2023-04-21T09:07:18.783Z,91451.94
2023-04-21T09:10:04.746Z,91462.44
2023-04-21T09:12:50.748Z,91462.41
2023-04-21T09:15:36.712Z,91474.81
2023-04-21T09:18:22.603Z,91483.09
2023-04-21T09:21:11.191Z,91486.38
2023-04-21T09:23:57.021Z,91479.63
2023-04-21T09:26:42.837Z,91477.91
2023-04-21T09:29:28.698Z,91477.09
2023-04-21T09:32:14.556Z,91483.53
2023-04-21T09:35:00.408Z,91484.66
2023-04-21T09:37:46.270Z,91492.16
2023-04-21T09:40:32.245Z,91494.78
2023-04-21T09:43:18.147Z,91504.59
2023-04-21T09:46:04.046Z,91520.38
2023-04-21T09:48:49.968Z,91520.97
2023-04-21T09:54:30.209Z,91533.94
2023-04-21T09:57:16.664Z,91536.19
2023-04-21T10:00:02.648Z,91537.34
2023-04-21T10:02:48.857Z,91552.00
2023-04-21T10:05:35.092Z,91553.09
2023-04-21T10:08:21.257Z,91524.34
2023-04-21T10:11:07.089Z,91502.69
2023-04-21T10:13:53.065Z,91507.44
2023-04-21T10:16:39.151Z,91511.88
2023-04-21T10:19:25.013Z,91487.03
2023-04-21T10:22:10.892Z,91481.88
2023-04-21T10:24:56.706Z,91471.25
2023-04-21T10:27:42.721Z,91462.94
2023-04-21T10:30:28.722Z,91480.84
2023-04-21T10:33:16.569Z,91498.34
2023-04-21T10:36:02.566Z,91495.34
2023-04-21T10:38:48.533Z,91504.00
2023-04-21T10:41:34.373Z,91508.97
2023-04-21T10:44:20.519Z,91495.72
2023-04-21T10:47:06.920Z,91483.28
2023-04-21T10:49:52.903Z,91486.97
2023-04-21T10:52:38.980Z,91475.91
2023-04-21T10:55:24.780Z,91472.19
2023-04-21T10:58:10.786Z,91487.25
2023-04-21T11:00:56.818Z,91500.25
2023-04-21T11:03:42.898Z,91496.91
2023-04-21T11:06:29.239Z,91500.03
2023-04-21T11:09:15.264Z,91516.41
2023-04-21T11:12:01.142Z,91511.72
2023-04-21T11:14:47.013Z,91498.97
2023-04-21T11:17:32.952Z,91494.50
2023-04-21T11:20:19.086Z,91492.50
2023-04-21T11:23:05.025Z,91487.41
2023-04-21T11:25:50.954Z,91484.28
2023-04-21T11:28:36.938Z,91486.75
2023-04-21T11:31:22.912Z,91498.41
2023-04-21T11:34:08.812Z,91491.59
2023-04-21T11:36:54.780Z,91494.53
2023-04-21T11:39:40.648Z,91488.41
2023-04-21T11:42:26.609Z,91480.19
2023-04-21T11:45:12.581Z,91484.59
2023-04-21T11:47:58.447Z,91471.31
2023-04-21T11:50:44.374Z,91472.78
2023-04-21T11:53:30.266Z,91473.16
2023-04-21T11:56:16.372Z,91467.88
2023-04-21T11:59:02.373Z,91470.56
2023-04-21T12:01:48.183Z,91472.78
2023-04-21T12:04:34.664Z,91490.19
2023-04-21T12:07:21.076Z,91485.41
2023-04-21T12:10:06.965Z,91491.41
2023-04-21T12:12:52.975Z,91493.34
2023-04-21T12:15:38.883Z,91482.94
2023-04-21T12:18:24.718Z,91489.50
2023-04-21T12:21:10.582Z,91488.31
2023-04-21T12:23:56.433Z,91494.31
2023-04-21T12:26:42.128Z,91485.97
2023-04-21T12:29:28.094Z,91492.53
2023-04-21T12:32:13.911Z,91500.91
2023-04-21T12:34:59.884Z,91493.94
2023-04-21T12:37:45.911Z,91480.66
2023-04-21T12:40:31.745Z,91480.09
2023-04-21T12:43:17.644Z,91482.53
2023-04-21T12:46:03.480Z,91483.53
2023-04-21T12:48:49.450Z,91491.75
2023-04-21T12:51:35.418Z,91483.38
2023-04-21T12:54:21.196Z,91486.84
2023-04-21T12:57:07.207Z,91497.44
2023-04-21T12:59:53.074Z,91492.09
2023-04-21T13:02:39.035Z,91493.63
2023-04-21T13:05:25.170Z,91489.63
2023-04-21T13:08:11.098Z,91479.00
2023-04-21T13:10:57.013Z,91479.16
2023-04-21T13:13:43.041Z,91472.81
2023-04-21T13:16:30.242Z,91479.69
2023-04-21T13:19:16.687Z,91480.28
2023-04-21T13:22:02.426Z,91475.91
2023-04-21T13:24:48.311Z,91470.72
2023-04-21T13:27:34.154Z,91475.00
2023-04-21T13:30:20.003Z,91469.50
2023-04-21T13:33:06.019Z,91468.38
2023-04-21T13:35:52.152Z,91466.22
2023-04-21T13:38:37.906Z,91471.84
2023-04-21T13:41:23.874Z,91459.81
2023-04-21T13:44:09.737Z,91458.69
2023-04-21T13:46:55.641Z,91456.81
2023-04-21T13:49:41.664Z,91468.47
2023-04-21T13:52:29.542Z,91471.47
2023-04-21T13:55:15.661Z,91475.66
2023-04-21T13:58:01.643Z,91470.72
2023-04-21T14:00:47.577Z,91466.97
2023-04-21T14:03:33.546Z,91467.34
2023-04-21T14:06:19.959Z,91469.16
2023-04-21T14:09:05.833Z,91465.47
2023-04-21T14:11:51.772Z,91470.25
2023-04-21T14:14:38.759Z,91472.22
2023-04-21T14:17:25.457Z,91466.59
2023-04-21T14:20:11.373Z,91474.63
2023-04-21T14:22:57.257Z,91475.97
2023-04-21T14:25:43.162Z,91470.75
2023-04-21T14:28:29.307Z,91469.47
2023-04-21T14:31:15.210Z,91466.75
2023-04-21T14:34:01.237Z,91459.91
2023-04-21T14:36:47.176Z,91456.41
2023-04-21T14:39:33.308Z,91453.06
2023-04-21T14:42:20.662Z,91455.88
2023-04-21T14:45:06.430Z,91452.19
2023-04-21T14:47:52.542Z,91444.03
2023-04-21T14:50:38.641Z,91448.69
2023-04-21T14:53:24.566Z,91449.66
2023-04-21T14:56:10.545Z,91448.19
2023-04-21T14:58:56.626Z,91455.28
2023-04-21T15:01:42.669Z,91450.56
2023-04-21T15:04:28.840Z,91460.03
2023-04-21T15:07:17.249Z,91458.28
2023-04-21T15:10:05.068Z,91454.06
2023-04-21T15:12:51.154Z,91448.13
2023-04-21T15:15:37.442Z,91450.84
2023-04-21T15:18:23.336Z,91456.53
2023-04-21T15:21:09.530Z,91453.66
2023-04-21T15:23:55.555Z,91455.16
2023-04-21T15:26:41.371Z,91452.63
2023-04-21T15:29:27.216Z,91451.44
2023-04-21T15:32:13.160Z,91449.75
2023-04-21T15:34:59.098Z,91446.34
2023-04-21T15:37:45.235Z,91447.22
2023-04-21T15:40:31.177Z,91440.78
2023-04-21T15:43:17.138Z,91443.47
2023-04-21T15:46:03.213Z,91443.88
2023-04-21T15:48:49.561Z,91454.66
2023-04-21T15:51:35.924Z,91452.03
2023-04-21T15:54:21.777Z,91442.88
2023-04-21T15:57:07.685Z,91441.34
2023-04-21T15:59:53.697Z,91451.19
2023-04-21T16:02:39.730Z,91443.56
2023-04-21T16:05:29.083Z,91441.72
2023-04-21T16:08:15.195Z,91439.50
2023-04-21T16:11:01.055Z,91442.44
2023-04-21T16:13:46.875Z,91434.69
2023-04-21T16:16:32.872Z,91436.88
2023-04-21T16:19:18.801Z,91444.84
2023-04-21T16:22:04.862Z,91441.53
2023-04-21T16:24:50.849Z,91442.63
2023-04-21T16:27:36.853Z,91448.00
2023-04-21T16:30:22.702Z,91450.75
2023-04-21T16:33:08.645Z,91443.94
2023-04-21T16:35:56.088Z,91457.94
2023-04-21T16:38:43.586Z,91454.28
2023-04-21T16:41:29.435Z,91453.25
2023-04-21T16:44:15.333Z,91452.50
2023-04-21T16:47:01.318Z,91445.84
2023-04-21T16:49:47.454Z,91453.34
2023-04-21T16:52:33.533Z,91459.78
2023-04-21T16:55:19.575Z,91453.81
2023-04-21T16:58:05.378Z,91447.03
2023-04-21T17:00:51.319Z,91443.66
2023-04-21T17:03:37.439Z,91433.88
2023-04-21T17:06:23.764Z,91434.56
2023-04-21T17:09:09.805Z,91438.69
2023-04-21T17:11:55.809Z,91436.13
2023-04-21T17:14:41.654Z,91434.63
2023-04-21T17:17:27.685Z,91443.13
2023-04-21T17:20:13.821Z,91442.53
2023-04-21T17:22:59.775Z,91447.81
2023-04-21T17:25:45.637Z,91446.31
2023-04-21T17:28:31.590Z,91445.16
2023-04-21T17:31:17.445Z,91450.31
2023-04-21T17:34:03.357Z,91443.28
2023-04-21T17:36:49.134Z,91444.81
2023-04-21T17:39:34.984Z,91440.63
2023-04-21T17:42:20.870Z,91438.41
2023-04-21T17:45:06.874Z,91443.97
2023-04-21T17:47:52.768Z,91447.41
2023-04-21T17:50:38.775Z,91443.66
2023-04-21T17:53:24.853Z,91439.03
2023-04-21T17:56:10.717Z,91444.75
2023-04-21T17:58:56.612Z,91446.66
2023-04-21T18:01:42.509Z,91451.94
2023-04-21T18:04:28.573Z,91453.41
2023-04-21T18:07:14.925Z,91456.38
2023-04-21T18:10:00.766Z,91449.28
2023-04-21T18:12:46.681Z,91453.78
2023-04-21T18:15:32.642Z,91449.31
2023-04-21T18:18:18.493Z,91453.81
2023-04-21T18:21:04.510Z,91450.44
2023-04-21T18:23:50.407Z,91455.31
2023-04-21T18:26:36.323Z,91456.41
2023-04-21T18:29:22.237Z,91454.88
2023-04-21T18:32:08.236Z,91447.78
2023-04-21T18:34:54.606Z,91456.41
2023-04-21T18:37:40.730Z,91462.84
2023-04-21T18:40:26.612Z,91459.06
2023-04-21T18:43:12.654Z,91460.13
2023-04-21T18:45:58.562Z,91468.25
2023-04-21T18:48:44.365Z,91471.38
2023-04-21T18:51:30.318Z,91465.47
2023-04-21T18:54:16.268Z,91460.97
2023-04-21T18:57:02.278Z,91471.06
2023-04-21T18:59:48.451Z,91467.56
2023-04-21T19:02:34.541Z,91472.19
2023-04-21T19:05:20.857Z,91476.75
2023-04-21T19:08:06.826Z,91466.22
2023-04-21T19:10:52.722Z,91470.75
2023-04-21T19:13:38.810Z,91475.69
2023-04-21T19:16:24.704Z,91477.88
2023-04-21T19:19:10.613Z,91480.63
2023-04-21T19:21:56.590Z,91475.88
2023-04-21T19:24:42.490Z,91476.13
2023-04-21T19:27:28.526Z,91468.75
2023-04-21T19:30:14.506Z,91470.75
2023-04-21T19:33:00.619Z,91462.84
2023-04-21T19:35:46.624Z,91467.75
2023-04-21T19:38:32.353Z,91463.97
2023-04-21T19:41:18.256Z,91463.22
2023-04-21T19:44:04.204Z,91470.88
2023-04-21T19:46:50.104Z,91472.56
2023-04-21T19:49:36.115Z,91470.63
2023-04-21T19:52:22.016Z,91468.47
2023-04-21T19:55:07.932Z,91472.25
2023-04-21T19:57:53.795Z,91477.50
2023-04-21T20:00:39.523Z,91469.09
2023-04-21T20:03:25.732Z,91469.41
2023-04-21T20:06:12.050Z,91468.94
2023-04-21T20:08:57.834Z,91469.53
2023-04-21T20:11:43.870Z,91472.16
2023-04-21T20:14:29.634Z,91474.41
2023-04-21T20:17:15.664Z,91468.81
2023-04-21T20:20:01.638Z,91463.59
2023-04-21T20:22:47.471Z,91473.47
2023-04-21T20:25:33.360Z,91468.88
2023-04-21T20:28:19.247Z,91471.34
2023-04-21T20:31:05.157Z,91481.59
2023-04-21T20:33:50.931Z,91483.25
2023-04-21T20:36:36.728Z,91475.16
2023-04-21T20:39:22.842Z,91477.19
2023-04-21T20:42:13.164Z,91474.06
2023-04-21T20:44:59.795Z,91473.94
2023-04-21T20:47:45.545Z,91483.34
2023-04-21T20:50:31.380Z,91488.47
2023-04-21T20:53:17.185Z,91486.03
2023-04-21T20:56:03.223Z,91481.88
2023-04-21T20:58:51.121Z,91490.59
2023-04-21T21:01:37.002Z,91480.50
2023-04-21T21:04:23.456Z,91486.00
2023-04-21T21:07:09.561Z,91485.75
2023-04-21T21:09:55.391Z,91486.09
2023-04-21T21:12:41.225Z,91485.28
2023-04-21T21:15:27.117Z,91483.16
2023-04-21T21:18:12.871Z,91476.25
2023-04-21T21:20:58.892Z,91483.84
2023-04-21T21:23:44.726Z,91483.97
2023-04-21T21:26:30.540Z,91492.03
2023-04-21T21:29:16.544Z,91486.16
2023-04-21T21:32:02.251Z,91496.25
2023-04-21T21:34:48.198Z,91492.28
2023-04-21T21:37:33.996Z,91491.47
2023-04-21T21:40:19.842Z,91496.16
2023-04-21T21:43:05.875Z,91496.69
2023-04-21T21:45:51.723Z,91500.88
2023-04-21T21:48:37.800Z,91496.38
2023-04-21T21:51:23.891Z,91494.03
2023-04-21T21:54:09.834Z,91496.59
2023-04-21T21:56:55.793Z,91486.25
2023-04-21T21:59:41.844Z,91501.16
2023-04-21T22:02:28.378Z,91495.34
2023-04-21T22:05:14.516Z,91495.19
2023-04-21T22:08:00.343Z,91495.13
2023-04-21T22:10:46.244Z,91498.78
2023-04-21T22:13:32.232Z,91489.19
2023-04-21T22:16:17.985Z,91492.22
2023-04-21T22:19:04.089Z,91485.94
2023-04-21T22:21:50.649Z,91486.91
2023-04-21T22:24:37.310Z,91489.63
2023-04-21T22:27:23.178Z,91493.72
2023-04-21T22:30:08.960Z,91488.22
2023-04-21T22:32:54.921Z,91492.28
2023-04-21T22:35:40.920Z,91496.41
2023-04-21T22:38:26.715Z,91501.34
2023-04-21T22:41:12.632Z,91500.25
2023-04-21T22:43:58.560Z,91505.81
2023-04-21T22:46:44.487Z,91494.75
2023-04-21T22:49:30.513Z,91495.06
2023-04-21T22:52:16.425Z,91495.66
2023-04-21T22:55:02.390Z,91497.50
2023-04-21T22:57:50.206Z,91502.75
2023-04-21T23:00:36.124Z,91500.09
2023-04-21T23:03:22.095Z,91488.16
2023-04-21T23:06:08.386Z,91491.97
2023-04-21T23:08:54.162Z,91495.00
2023-04-21T23:11:39.942Z,91499.94
2023-04-21T23:14:25.748Z,91498.25
2023-04-21T23:17:11.689Z,91508.78
2023-04-21T23:19:57.614Z,91500.31
2023-04-21T23:22:43.554Z,91495.34
2023-04-21T23:25:29.542Z,91498.50
2023-04-21T23:28:15.559Z,91496.94
2023-04-21T23:31:01.352Z,91488.81
2023-04-21T23:33:47.354Z,91494.00
2023-04-21T23:36:33.055Z,91487.53
2023-04-21T23:39:20.874Z,91483.00
2023-04-21T23:42:06.675Z,91482.28
2023-04-21T23:44:52.597Z,91476.38
2023-04-21T23:47:38.665Z,91479.88
2023-04-21T23:50:24.566Z,91472.34
2023-04-21T23:53:10.276Z,91473.94
2023-04-21T23:55:56.285Z,91465.47
2023-04-21T23:58:42.162Z,91471.75
